Terminal Aerodrome Forecast
Issued by NWS

Home | Current Version | Previous Version | Text Only | Print | Product List | Glossary On
Versions: 1 2 3 4 5 6 7 8 9 10 11 12 13 14
000
FTUS46 KMFR 011735
TAFLMT
TAF
KLMT 011735Z 0118/0218 20004KT P6SM VCSH BKN040 OVC060
     FM012100 27005KT P6SM VCSH SCT025 BKN040 OVC100
     FM020100 25006KT P6SM -SHRA SCT025 BKN040
     FM021400 19009KT P6SM -SHRA OVC040=

USA.gov is the U.S. government's official web portal to all federal, state and local government web resources and services.